sensor_id;sensor_type;location;lat;lon;timestamp;temperature;humidity
15115;DHT22;7658;51.456;7.622;2024-02-15T00:00:29;10.90;99.90
15115;DHT22;7658;51.456;7.622;2024-02-15T00:02:55;10.90;99.90
15115;DHT22;7658;51.456;7.622;2024-02-15T00:05:21;10.90;99.90
15115;DHT22;7658;51.456;7.622;2024-02-15T00:07:47;10.90;99.90
15115;DHT22;7658;51.456;7.622;2024-02-15T00:10:14;10.90;99.90
15115;DHT22;7658;51.456;7.622;2024-02-15T00:12:40;10.90;99.90
15115;DHT22;7658;51.456;7.622;2024-02-15T00:15:06;10.90;99.90
15115;DHT22;7658;51.456;7.622;2024-02-15T00:17:33;10.90;99.90
15115;DHT22;7658;51.456;7.622;2024-02-15T00:20:02;10.90;99.90
15115;DHT22;7658;51.456;7.622;2024-02-15T00:22:30;10.90;99.90
15115;DHT22;7658;51.456;7.622;2024-02-15T00:24:56;10.80;99.90
15115;DHT22;7658;51.456;7.622;2024-02-15T00:27:23;10.80;99.90
15115;DHT22;7658;51.456;7.622;2024-02-15T00:29:49;10.80;99.90
15115;DHT22;7658;51.456;7.622;2024-02-15T00:32:15;10.80;99.90
15115;DHT22;7658;51.456;7.622;2024-02-15T00:34:40;10.80;99.90
15115;DHT22;7658;51.456;7.622;2024-02-15T00:37:07;10.80;99.90
15115;DHT22;7658;51.456;7.622;2024-02-15T00:39:33;10.80;99.90
15115;DHT22;7658;51.456;7.622;2024-02-15T00:41:59;10.80;99.90
15115;DHT22;7658;51.456;7.622;2024-02-15T00:44:27;10.80;99.90
15115;DHT22;7658;51.456;7.622;2024-02-15T00:46:53;10.80;99.90
15115;DHT22;7658;51.456;7.622;2024-02-15T00:49:19;10.80;99.90
15115;DHT22;7658;51.456;7.622;2024-02-15T00:51:46;10.80;99.90
15115;DHT22;7658;51.456;7.622;2024-02-15T00:54:12;10.80;99.90
15115;DHT22;7658;51.456;7.622;2024-02-15T00:56:38;10.80;99.90
15115;DHT22;7658;51.456;7.622;2024-02-15T00:59:03;10.90;99.90
15115;DHT22;7658;51.456;7.622;2024-02-15T01:01:30;10.80;99.90
15115;DHT22;7658;51.456;7.622;2024-02-15T01:03:56;10.90;99.90
15115;DHT22;7658;51.456;7.622;2024-02-15T01:06:22;10.90;99.90
15115;DHT22;7658;51.456;7.622;2024-02-15T01:08:48;10.90;99.90
15115;DHT22;7658;51.456;7.622;2024-02-15T01:11:14;10.90;99.90
15115;DHT22;7658;51.456;7.622;2024-02-15T01:13:40;10.90;99.90
15115;DHT22;7658;51.456;7.622;2024-02-15T01:16:07;10.90;99.90
15115;DHT22;7658;51.456;7.622;2024-02-15T01:18:33;10.80;99.90
15115;DHT22;7658;51.456;7.622;2024-02-15T01:21:00;10.90;99.90
15115;DHT22;7658;51.456;7.622;2024-02-15T01:23:26;10.90;99.90
15115;DHT22;7658;51.456;7.622;2024-02-15T01:25:52;10.90;99.90
15115;DHT22;7658;51.456;7.622;2024-02-15T01:28:18;10.90;99.90
15115;DHT22;7658;51.456;7.622;2024-02-15T01:30:45;10.90;99.90
15115;DHT22;7658;51.456;7.622;2024-02-15T01:33:12;10.90;99.90
15115;DHT22;7658;51.456;7.622;2024-02-15T01:35:38;10.90;99.90
15115;DHT22;7658;51.456;7.622;2024-02-15T01:38:05;10.90;99.90
15115;DHT22;7658;51.456;7.622;2024-02-15T01:40:31;10.90;99.90
15115;DHT22;7658;51.456;7.622;2024-02-15T01:42:57;10.90;99.90
15115;DHT22;7658;51.456;7.622;2024-02-15T01:45:24;10.90;99.90
15115;DHT22;7658;51.456;7.622;2024-02-15T01:47:52;10.90;99.90
15115;DHT22;7658;51.456;7.622;2024-02-15T01:50:18;10.90;99.90
15115;DHT22;7658;51.456;7.622;2024-02-15T01:52:47;10.90;99.90
15115;DHT22;7658;51.456;7.622;2024-02-15T01:55:14;10.90;99.90
15115;DHT22;7658;51.456;7.622;2024-02-15T01:57:45;10.90;99.90
15115;DHT22;7658;51.456;7.622;2024-02-15T02:00:12;10.90;99.90
15115;DHT22;7658;51.456;7.622;2024-02-15T02:02:39;10.90;99.90
15115;DHT22;7658;51.456;7.622;2024-02-15T02:05:07;10.90;99.90
15115;DHT22;7658;51.456;7.622;2024-02-15T02:07:33;10.90;99.90
15115;DHT22;7658;51.456;7.622;2024-02-15T02:09:59;11.00;99.90
15115;DHT22;7658;51.456;7.622;2024-02-15T02:12:25;10.90;99.90
15115;DHT22;7658;51.456;7.622;2024-02-15T02:14:55;11.00;99.90
15115;DHT22;7658;51.456;7.622;2024-02-15T02:17:21;10.90;99.90
15115;DHT22;7658;51.456;7.622;2024-02-15T02:19:48;11.00;99.90
15115;DHT22;7658;51.456;7.622;2024-02-15T02:22:17;10.90;99.90
15115;DHT22;7658;51.456;7.622;2024-02-15T02:25:05;11.00;99.90
15115;DHT22;7658;51.456;7.622;2024-02-15T02:27:35;11.00;99.90
15115;DHT22;7658;51.456;7.622;2024-02-15T02:30:05;11.00;99.90
15115;DHT22;7658;51.456;7.622;2024-02-15T02:32:35;10.90;99.90
15115;DHT22;7658;51.456;7.622;2024-02-15T02:35:02;10.90;99.90
15115;DHT22;7658;51.456;7.622;2024-02-15T02:37:29;10.90;99.90
15115;DHT22;7658;51.456;7.622;2024-02-15T02:39:54;10.90;99.90
15115;DHT22;7658;51.456;7.622;2024-02-15T02:42:20;10.90;99.90
15115;DHT22;7658;51.456;7.622;2024-02-15T02:44:46;10.90;99.90
15115;DHT22;7658;51.456;7.622;2024-02-15T02:47:12;10.90;99.90
15115;DHT22;7658;51.456;7.622;2024-02-15T02:49:38;10.90;99.90
15115;DHT22;7658;51.456;7.622;2024-02-15T02:52:04;10.90;99.90
15115;DHT22;7658;51.456;7.622;2024-02-15T02:54:30;10.90;99.90
15115;DHT22;7658;51.456;7.622;2024-02-15T02:56:56;10.90;99.90
15115;DHT22;7658;51.456;7.622;2024-02-15T02:59:22;10.90;99.90
15115;DHT22;7658;51.456;7.622;2024-02-15T03:01:48;10.90;99.90
15115;DHT22;7658;51.456;7.622;2024-02-15T03:04:17;10.90;99.90
15115;DHT22;7658;51.456;7.622;2024-02-15T03:06:43;10.90;99.90
15115;DHT22;7658;51.456;7.622;2024-02-15T03:09:09;10.90;99.90
15115;DHT22;7658;51.456;7.622;2024-02-15T03:11:36;10.90;99.90
15115;DHT22;7658;51.456;7.622;2024-02-15T03:14:02;10.80;99.90
15115;DHT22;7658;51.456;7.622;2024-02-15T03:16:32;10.90;99.90
15115;DHT22;7658;51.456;7.622;2024-02-15T03:18:59;10.90;99.90
15115;DHT22;7658;51.456;7.622;2024-02-15T03:21:28;10.80;99.90
15115;DHT22;7658;51.456;7.622;2024-02-15T03:23:54;10.90;99.90
15115;DHT22;7658;51.456;7.622;2024-02-15T03:26:30;10.80;99.90
15115;DHT22;7658;51.456;7.622;2024-02-15T03:28:59;10.80;99.90
15115;DHT22;7658;51.456;7.622;2024-02-15T03:31:24;10.80;99.90
15115;DHT22;7658;51.456;7.622;2024-02-15T03:33:51;10.80;99.90
15115;DHT22;7658;51.456;7.622;2024-02-15T03:36:17;10.80;99.90
15115;DHT22;7658;51.456;7.622;2024-02-15T03:38:45;10.80;99.90
15115;DHT22;7658;51.456;7.622;2024-02-15T03:41:12;10.80;99.90
15115;DHT22;7658;51.456;7.622;2024-02-15T03:43:38;10.70;99.90
15115;DHT22;7658;51.456;7.622;2024-02-15T03:46:04;10.70;99.90
15115;DHT22;7658;51.456;7.622;2024-02-15T03:48:30;10.70;99.90
15115;DHT22;7658;51.456;7.622;2024-02-15T03:50:57;10.60;99.90
15115;DHT22;7658;51.456;7.622;2024-02-15T03:53:24;10.60;99.90
15115;DHT22;7658;51.456;7.622;2024-02-15T03:55:49;10.70;99.90
15115;DHT22;7658;51.456;7.622;2024-02-15T03:58:19;10.70;99.90
15115;DHT22;7658;51.456;7.622;2024-02-15T04:00:45;10.70;99.90
15115;DHT22;7658;51.456;7.622;2024-02-15T04:03:11;10.70;99.90
15115;DHT22;7658;51.456;7.622;2024-02-15T04:05:37;10.70;99.90
15115;DHT22;7658;51.456;7.622;2024-02-15T04:08:03;10.70;99.90
15115;DHT22;7658;51.456;7.622;2024-02-15T04:10:30;10.70;99.90
15115;DHT22;7658;51.456;7.622;2024-02-15T04:12:56;10.70;99.90
15115;DHT22;7658;51.456;7.622;2024-02-15T04:15:24;10.70;99.90
15115;DHT22;7658;51.456;7.622;2024-02-15T04:17:49;10.70;99.90
15115;DHT22;7658;51.456;7.622;2024-02-15T04:20:21;10.70;99.90
15115;DHT22;7658;51.456;7.622;2024-02-15T04:22:47;10.70;99.90
15115;DHT22;7658;51.456;7.622;2024-02-15T04:25:15;10.70;99.90
15115;DHT22;7658;51.456;7.622;2024-02-15T04:27:44;10.70;99.90
15115;DHT22;7658;51.456;7.622;2024-02-15T04:30:12;10.70;99.90
15115;DHT22;7658;51.456;7.622;2024-02-15T04:32:38;10.70;99.90
15115;DHT22;7658;51.456;7.622;2024-02-15T04:35:04;10.70;99.90
15115;DHT22;7658;51.456;7.622;2024-02-15T04:37:31;10.70;99.90
15115;DHT22;7658;51.456;7.622;2024-02-15T04:39:58;10.80;99.90
15115;DHT22;7658;51.456;7.622;2024-02-15T04:42:32;10.80;99.90
15115;DHT22;7658;51.456;7.622;2024-02-15T04:45:00;10.80;99.90
15115;DHT22;7658;51.456;7.622;2024-02-15T04:47:25;10.80;99.90
15115;DHT22;7658;51.456;7.622;2024-02-15T04:49:51;10.80;99.90
15115;DHT22;7658;51.456;7.622;2024-02-15T04:52:17;10.80;99.90
15115;DHT22;7658;51.456;7.622;2024-02-15T04:54:43;10.80;99.90
15115;DHT22;7658;51.456;7.622;2024-02-15T04:57:10;10.90;99.90
15115;DHT22;7658;51.456;7.622;2024-02-15T04:59:37;10.90;99.90
15115;DHT22;7658;51.456;7.622;2024-02-15T05:02:03;10.80;99.90
15115;DHT22;7658;51.456;7.622;2024-02-15T05:04:29;10.80;99.90
15115;DHT22;7658;51.456;7.622;2024-02-15T05:06:54;10.80;99.90
15115;DHT22;7658;51.456;7.622;2024-02-15T05:09:21;10.80;99.90
15115;DHT22;7658;51.456;7.622;2024-02-15T05:11:48;10.80;99.90
15115;DHT22;7658;51.456;7.622;2024-02-15T05:14:14;10.70;99.90
15115;DHT22;7658;51.456;7.622;2024-02-15T05:16:47;10.80;99.90
15115;DHT22;7658;51.456;7.622;2024-02-15T05:19:17;10.80;99.90
15115;DHT22;7658;51.456;7.622;2024-02-15T05:21:43;10.80;99.90
15115;DHT22;7658;51.456;7.622;2024-02-15T05:24:13;10.70;99.90
15115;DHT22;7658;51.456;7.622;2024-02-15T05:26:40;10.70;99.90
15115;DHT22;7658;51.456;7.622;2024-02-15T05:29:09;10.70;99.90
15115;DHT22;7658;51.456;7.622;2024-02-15T05:31:35;10.70;99.90
15115;DHT22;7658;51.456;7.622;2024-02-15T05:34:05;10.80;99.90
15115;DHT22;7658;51.456;7.622;2024-02-15T05:36:33;10.70;99.90
15115;DHT22;7658;51.456;7.622;2024-02-15T05:38:59;10.70;99.90
15115;DHT22;7658;51.456;7.622;2024-02-15T05:41:25;10.70;99.90
15115;DHT22;7658;51.456;7.622;2024-02-15T05:43:51;10.70;99.90
15115;DHT22;7658;51.456;7.622;2024-02-15T05:46:20;10.80;99.90
15115;DHT22;7658;51.456;7.622;2024-02-15T05:48:49;10.80;99.90
15115;DHT22;7658;51.456;7.622;2024-02-15T05:51:17;10.70;99.90
15115;DHT22;7658;51.456;7.622;2024-02-15T05:53:43;10.70;99.90
15115;DHT22;7658;51.456;7.622;2024-02-15T05:56:09;10.80;99.90
15115;DHT22;7658;51.456;7.622;2024-02-15T05:58:40;10.70;99.90
15115;DHT22;7658;51.456;7.622;2024-02-15T06:01:06;10.70;99.90
15115;DHT22;7658;51.456;7.622;2024-02-15T06:03:34;10.80;99.90
15115;DHT22;7658;51.456;7.622;2024-02-15T06:06:04;10.70;99.90
15115;DHT22;7658;51.456;7.622;2024-02-15T06:08:34;10.70;99.90
15115;DHT22;7658;51.456;7.622;2024-02-15T06:11:00;10.70;99.90
15115;DHT22;7658;51.456;7.622;2024-02-15T06:13:27;10.70;99.90
15115;DHT22;7658;51.456;7.622;2024-02-15T06:15:53;10.70;99.90
15115;DHT22;7658;51.456;7.622;2024-02-15T06:20:51;10.70;99.90
15115;DHT22;7658;51.456;7.622;2024-02-15T06:23:23;10.80;99.90
15115;DHT22;7658;51.456;7.622;2024-02-15T06:25:55;10.80;99.90
15115;DHT22;7658;51.456;7.622;2024-02-15T06:28:22;10.90;99.90
15115;DHT22;7658;51.456;7.622;2024-02-15T06:31:08;10.90;99.90
15115;DHT22;7658;51.456;7.622;2024-02-15T06:33:52;10.90;99.90
15115;DHT22;7658;51.456;7.622;2024-02-15T06:36:56;10.90;99.90
15115;DHT22;7658;51.456;7.622;2024-02-15T06:39:40;10.90;99.90
15115;DHT22;7658;51.456;7.622;2024-02-15T06:42:13;11.00;99.90
15115;DHT22;7658;51.456;7.622;2024-02-15T06:44:46;11.00;99.90
15115;DHT22;7658;51.456;7.622;2024-02-15T06:47:13;11.00;99.90
15115;DHT22;7658;51.456;7.622;2024-02-15T06:49:39;11.00;99.90
15115;DHT22;7658;51.456;7.622;2024-02-15T06:52:09;11.00;99.90
15115;DHT22;7658;51.456;7.622;2024-02-15T06:54:41;11.00;99.90
15115;DHT22;7658;51.456;7.622;2024-02-15T06:57:07;11.00;99.90
15115;DHT22;7658;51.456;7.622;2024-02-15T06:59:33;11.00;99.90
15115;DHT22;7658;51.456;7.622;2024-02-15T07:02:03;11.00;99.90
15115;DHT22;7658;51.456;7.622;2024-02-15T07:04:30;11.00;99.90
15115;DHT22;7658;51.456;7.622;2024-02-15T07:06:57;11.00;99.90
15115;DHT22;7658;51.456;7.622;2024-02-15T07:09:23;11.00;99.90
15115;DHT22;7658;51.456;7.622;2024-02-15T07:11:53;11.00;99.90
15115;DHT22;7658;51.456;7.622;2024-02-15T07:14:19;11.10;99.90
15115;DHT22;7658;51.456;7.622;2024-02-15T07:16:49;11.00;99.90
15115;DHT22;7658;51.456;7.622;2024-02-15T07:19:18;11.00;99.90
15115;DHT22;7658;51.456;7.622;2024-02-15T07:21:43;11.00;99.90
15115;DHT22;7658;51.456;7.622;2024-02-15T07:24:09;11.00;99.90
15115;DHT22;7658;51.456;7.622;2024-02-15T07:26:36;11.00;99.90
15115;DHT22;7658;51.456;7.622;2024-02-15T07:29:02;11.00;99.90
15115;DHT22;7658;51.456;7.622;2024-02-15T07:31:31;11.00;99.90
15115;DHT22;7658;51.456;7.622;2024-02-15T07:33:59;11.00;99.90
15115;DHT22;7658;51.456;7.622;2024-02-15T07:36:25;11.00;99.90
15115;DHT22;7658;51.456;7.622;2024-02-15T07:38:52;11.00;99.90
15115;DHT22;7658;51.456;7.622;2024-02-15T07:41:21;10.90;99.90
15115;DHT22;7658;51.456;7.622;2024-02-15T07:43:48;11.00;99.90
15115;DHT22;7658;51.456;7.622;2024-02-15T07:46:15;11.00;99.90
15115;DHT22;7658;51.456;7.622;2024-02-15T07:48:45;10.90;99.90
15115;DHT22;7658;51.456;7.622;2024-02-15T07:51:18;11.00;99.90
15115;DHT22;7658;51.456;7.622;2024-02-15T07:53:45;10.90;99.90
15115;DHT22;7658;51.456;7.622;2024-02-15T07:56:12;11.00;99.90
15115;DHT22;7658;51.456;7.622;2024-02-15T07:58:48;10.90;99.90
15115;DHT22;7658;51.456;7.622;2024-02-15T08:01:17;10.90;99.90
15115;DHT22;7658;51.456;7.622;2024-02-15T08:03:44;11.00;99.90
15115;DHT22;7658;51.456;7.622;2024-02-15T08:06:14;11.00;99.90
15115;DHT22;7658;51.456;7.622;2024-02-15T08:08:42;11.00;99.90
15115;DHT22;7658;51.456;7.622;2024-02-15T08:11:08;11.00;99.90
15115;DHT22;7658;51.456;7.622;2024-02-15T08:13:46;11.10;99.90
15115;DHT22;7658;51.456;7.622;2024-02-15T08:16:22;11.10;99.90
15115;DHT22;7658;51.456;7.622;2024-02-15T08:18:49;11.20;99.90
15115;DHT22;7658;51.456;7.622;2024-02-15T08:21:18;11.10;99.90
15115;DHT22;7658;51.456;7.622;2024-02-15T08:23:46;11.20;99.90
15115;DHT22;7658;51.456;7.622;2024-02-15T08:26:12;11.20;99.90
15115;DHT22;7658;51.456;7.622;2024-02-15T08:28:38;11.30;99.90
15115;DHT22;7658;51.456;7.622;2024-02-15T08:31:03;11.30;99.90
15115;DHT22;7658;51.456;7.622;2024-02-15T08:33:29;11.40;99.90
15115;DHT22;7658;51.456;7.622;2024-02-15T08:35:55;11.40;99.90
15115;DHT22;7658;51.456;7.622;2024-02-15T08:38:24;11.40;99.90
15115;DHT22;7658;51.456;7.622;2024-02-15T08:40:50;11.40;99.90
15115;DHT22;7658;51.456;7.622;2024-02-15T08:43:16;11.40;99.90
15115;DHT22;7658;51.456;7.622;2024-02-15T08:45:42;11.40;99.90
15115;DHT22;7658;51.456;7.622;2024-02-15T08:48:09;11.50;99.90
15115;DHT22;7658;51.456;7.622;2024-02-15T08:50:34;11.60;99.90
15115;DHT22;7658;51.456;7.622;2024-02-15T08:53:01;11.60;99.90
15115;DHT22;7658;51.456;7.622;2024-02-15T08:55:30;11.70;99.90
15115;DHT22;7658;51.456;7.622;2024-02-15T08:57:56;11.70;99.90
15115;DHT22;7658;51.456;7.622;2024-02-15T09:00:21;11.80;99.90
15115;DHT22;7658;51.456;7.622;2024-02-15T09:02:47;11.80;99.90
15115;DHT22;7658;51.456;7.622;2024-02-15T09:05:14;11.80;99.90
15115;DHT22;7658;51.456;7.622;2024-02-15T09:07:41;11.90;99.90
15115;DHT22;7658;51.456;7.622;2024-02-15T09:10:09;11.80;99.90
15115;DHT22;7658;51.456;7.622;2024-02-15T09:12:39;11.80;99.90
15115;DHT22;7658;51.456;7.622;2024-02-15T09:15:07;11.80;99.90
15115;DHT22;7658;51.456;7.622;2024-02-15T09:17:34;11.80;99.90
15115;DHT22;7658;51.456;7.622;2024-02-15T09:20:06;11.80;99.90
15115;DHT22;7658;51.456;7.622;2024-02-15T09:22:33;11.80;99.90
15115;DHT22;7658;51.456;7.622;2024-02-15T09:25:04;11.80;99.90
15115;DHT22;7658;51.456;7.622;2024-02-15T09:27:29;11.80;99.90
15115;DHT22;7658;51.456;7.622;2024-02-15T09:29:55;11.80;99.90
15115;DHT22;7658;51.456;7.622;2024-02-15T09:32:21;11.80;99.90
15115;DHT22;7658;51.456;7.622;2024-02-15T09:34:48;11.70;99.90
15115;DHT22;7658;51.456;7.622;2024-02-15T09:37:15;11.70;99.90
15115;DHT22;7658;51.456;7.622;2024-02-15T09:39:41;11.70;99.90
15115;DHT22;7658;51.456;7.622;2024-02-15T09:42:07;11.70;99.90
15115;DHT22;7658;51.456;7.622;2024-02-15T09:44:32;11.80;99.90
15115;DHT22;7658;51.456;7.622;2024-02-15T09:47:04;11.80;99.90
15115;DHT22;7658;51.456;7.622;2024-02-15T09:49:37;11.80;99.90
15115;DHT22;7658;51.456;7.622;2024-02-15T09:52:07;11.80;99.90
15115;DHT22;7658;51.456;7.622;2024-02-15T09:54:43;11.80;99.90
15115;DHT22;7658;51.456;7.622;2024-02-15T09:57:10;11.80;99.90
15115;DHT22;7658;51.456;7.622;2024-02-15T09:59:37;11.80;99.90
15115;DHT22;7658;51.456;7.622;2024-02-15T10:02:03;11.90;99.90
15115;DHT22;7658;51.456;7.622;2024-02-15T10:04:29;11.90;99.90
15115;DHT22;7658;51.456;7.622;2024-02-15T10:06:57;11.90;99.90
15115;DHT22;7658;51.456;7.622;2024-02-15T10:09:27;11.90;99.90
15115;DHT22;7658;51.456;7.622;2024-02-15T10:11:55;11.90;99.90
15115;DHT22;7658;51.456;7.622;2024-02-15T10:14:22;11.90;99.90
15115;DHT22;7658;51.456;7.622;2024-02-15T10:16:48;11.90;99.90
15115;DHT22;7658;51.456;7.622;2024-02-15T10:19:15;12.00;99.90
15115;DHT22;7658;51.456;7.622;2024-02-15T10:21:42;12.00;99.90
15115;DHT22;7658;51.456;7.622;2024-02-15T10:24:09;12.00;99.90
15115;DHT22;7658;51.456;7.622;2024-02-15T10:26:35;12.10;99.90
15115;DHT22;7658;51.456;7.622;2024-02-15T10:29:05;12.20;99.90
15115;DHT22;7658;51.456;7.622;2024-02-15T10:31:35;12.20;99.90
15115;DHT22;7658;51.456;7.622;2024-02-15T10:34:05;12.30;99.90
15115;DHT22;7658;51.456;7.622;2024-02-15T10:36:31;12.40;99.90
15115;DHT22;7658;51.456;7.622;2024-02-15T10:39:17;12.50;99.90
15115;DHT22;7658;51.456;7.622;2024-02-15T10:41:49;12.60;99.90
15115;DHT22;7658;51.456;7.622;2024-02-15T10:44:17;12.60;99.90
15115;DHT22;7658;51.456;7.622;2024-02-15T10:46:45;12.60;99.90
15115;DHT22;7658;51.456;7.622;2024-02-15T10:49:13;12.70;99.90
15115;DHT22;7658;51.456;7.622;2024-02-15T10:51:43;12.60;99.90
15115;DHT22;7658;51.456;7.622;2024-02-15T10:54:12;12.60;99.90
15115;DHT22;7658;51.456;7.622;2024-02-15T10:56:45;12.60;99.90
15115;DHT22;7658;51.456;7.622;2024-02-15T10:59:20;12.60;99.90
15115;DHT22;7658;51.456;7.622;2024-02-15T11:01:46;12.60;99.90
15115;DHT22;7658;51.456;7.622;2024-02-15T11:04:15;12.60;99.90
15115;DHT22;7658;51.456;7.622;2024-02-15T11:06:42;12.60;99.90
15115;DHT22;7658;51.456;7.622;2024-02-15T11:09:10;12.60;99.90
15115;DHT22;7658;51.456;7.622;2024-02-15T11:11:38;12.60;99.90
15115;DHT22;7658;51.456;7.622;2024-02-15T11:14:27;12.70;99.90
15115;DHT22;7658;51.456;7.622;2024-02-15T11:16:58;12.70;99.90
15115;DHT22;7658;51.456;7.622;2024-02-15T11:22:12;12.80;99.90
15115;DHT22;7658;51.456;7.622;2024-02-15T11:27:27;12.90;99.90
15115;DHT22;7658;51.456;7.622;2024-02-15T11:29:58;13.00;99.90
15115;DHT22;7658;51.456;7.622;2024-02-15T11:35:11;13.00;99.90
15115;DHT22;7658;51.456;7.622;2024-02-15T11:42:44;13.10;99.90
15115;DHT22;7658;51.456;7.622;2024-02-15T11:45:11;13.20;99.90
15115;DHT22;7658;51.456;7.622;2024-02-15T11:47:38;13.20;99.90
15115;DHT22;7658;51.456;7.622;2024-02-15T11:50:09;13.20;99.90
15115;DHT22;7658;51.456;7.622;2024-02-15T11:52:43;13.30;99.90
15115;DHT22;7658;51.456;7.622;2024-02-15T11:55:10;13.30;99.90
15115;DHT22;7658;51.456;7.622;2024-02-15T11:57:41;13.30;99.90
15115;DHT22;7658;51.456;7.622;2024-02-15T12:00:21;13.30;99.90
15115;DHT22;7658;51.456;7.622;2024-02-15T12:03:05;13.30;99.90
15115;DHT22;7658;51.456;7.622;2024-02-15T12:05:50;13.30;99.90
15115;DHT22;7658;51.456;7.622;2024-02-15T12:08:35;13.40;99.90
15115;DHT22;7658;51.456;7.622;2024-02-15T12:11:20;13.30;99.90
15115;DHT22;7658;51.456;7.622;2024-02-15T12:14:04;13.30;99.90
15115;DHT22;7658;51.456;7.622;2024-02-15T12:17:05;13.30;99.90
15115;DHT22;7658;51.456;7.622;2024-02-15T12:19:51;13.40;99.90
15115;DHT22;7658;51.456;7.622;2024-02-15T12:22:22;13.50;99.90
15115;DHT22;7658;51.456;7.622;2024-02-15T12:24:58;13.50;99.90
15115;DHT22;7658;51.456;7.622;2024-02-15T12:27:25;13.50;99.90
15115;DHT22;7658;51.456;7.622;2024-02-15T12:29:59;13.60;99.90
15115;DHT22;7658;51.456;7.622;2024-02-15T12:32:27;13.70;99.90
15115;DHT22;7658;51.456;7.622;2024-02-15T12:35:02;13.70;99.90
15115;DHT22;7658;51.456;7.622;2024-02-15T12:37:35;13.70;99.90
15115;DHT22;7658;51.456;7.622;2024-02-15T12:40:16;13.70;99.90
15115;DHT22;7658;51.456;7.622;2024-02-15T12:42:46;13.70;99.90
15115;DHT22;7658;51.456;7.622;2024-02-15T12:45:19;13.80;99.90
15115;DHT22;7658;51.456;7.622;2024-02-15T12:47:50;13.90;99.90
15115;DHT22;7658;51.456;7.622;2024-02-15T12:50:18;14.10;99.90
15115;DHT22;7658;51.456;7.622;2024-02-15T12:52:49;14.40;99.90
15115;DHT22;7658;51.456;7.622;2024-02-15T12:55:23;14.50;99.90
15115;DHT22;7658;51.456;7.622;2024-02-15T12:57:53;14.60;99.90
15115;DHT22;7658;51.456;7.622;2024-02-15T13:00:20;14.80;99.90
15115;DHT22;7658;51.456;7.622;2024-02-15T13:02:50;14.90;99.90
15115;DHT22;7658;51.456;7.622;2024-02-15T13:05:19;14.90;99.90
15115;DHT22;7658;51.456;7.622;2024-02-15T13:07:52;14.90;99.90
15115;DHT22;7658;51.456;7.622;2024-02-15T13:10:18;15.00;99.90
15115;DHT22;7658;51.456;7.622;2024-02-15T13:12:45;15.00;99.90
15115;DHT22;7658;51.456;7.622;2024-02-15T13:15:13;15.00;99.90
15115;DHT22;7658;51.456;7.622;2024-02-15T13:17:47;15.00;99.90
15115;DHT22;7658;51.456;7.622;2024-02-15T13:20:22;15.00;99.90
15115;DHT22;7658;51.456;7.622;2024-02-15T13:23:10;15.00;99.90
15115;DHT22;7658;51.456;7.622;2024-02-15T13:25:56;15.00;99.90
15115;DHT22;7658;51.456;7.622;2024-02-15T13:28:22;15.00;99.90
15115;DHT22;7658;51.456;7.622;2024-02-15T13:30:50;15.00;99.90
15115;DHT22;7658;51.456;7.622;2024-02-15T13:33:19;15.00;99.90
15115;DHT22;7658;51.456;7.622;2024-02-15T13:35:46;15.10;99.90
15115;DHT22;7658;51.456;7.622;2024-02-15T13:38:12;15.20;99.90
15115;DHT22;7658;51.456;7.622;2024-02-15T13:40:46;15.20;99.90
15115;DHT22;7658;51.456;7.622;2024-02-15T13:43:15;15.30;99.90
15115;DHT22;7658;51.456;7.622;2024-02-15T13:45:43;15.40;99.90
15115;DHT22;7658;51.456;7.622;2024-02-15T13:48:10;15.40;99.90
15115;DHT22;7658;51.456;7.622;2024-02-15T13:50:39;15.40;99.90
15115;DHT22;7658;51.456;7.622;2024-02-15T13:53:05;15.40;99.90
15115;DHT22;7658;51.456;7.622;2024-02-15T13:55:31;15.40;99.90
15115;DHT22;7658;51.456;7.622;2024-02-15T13:57:57;15.30;99.90
15115;DHT22;7658;51.456;7.622;2024-02-15T14:00:24;15.30;99.90
15115;DHT22;7658;51.456;7.622;2024-02-15T14:03:01;15.20;99.90
15115;DHT22;7658;51.456;7.622;2024-02-15T14:05:29;15.20;99.90
15115;DHT22;7658;51.456;7.622;2024-02-15T14:07:59;15.10;99.90
15115;DHT22;7658;51.456;7.622;2024-02-15T14:10:28;15.00;99.90
15115;DHT22;7658;51.456;7.622;2024-02-15T14:12:55;15.00;99.90
15115;DHT22;7658;51.456;7.622;2024-02-15T14:15:21;15.00;99.90
15115;DHT22;7658;51.456;7.622;2024-02-15T14:17:47;15.00;99.90
15115;DHT22;7658;51.456;7.622;2024-02-15T14:20:13;15.00;99.90
15115;DHT22;7658;51.456;7.622;2024-02-15T14:22:47;14.90;99.90
15115;DHT22;7658;51.456;7.622;2024-02-15T14:25:21;14.90;99.90
15115;DHT22;7658;51.456;7.622;2024-02-15T14:27:47;14.90;99.90
15115;DHT22;7658;51.456;7.622;2024-02-15T14:30:15;14.90;99.90
15115;DHT22;7658;51.456;7.622;2024-02-15T14:33:00;14.90;99.90
15115;DHT22;7658;51.456;7.622;2024-02-15T14:35:26;14.90;99.90
15115;DHT22;7658;51.456;7.622;2024-02-15T14:37:56;14.90;99.90
15115;DHT22;7658;51.456;7.622;2024-02-15T14:40:25;14.90;99.90
15115;DHT22;7658;51.456;7.622;2024-02-15T14:42:50;14.90;99.90
15115;DHT22;7658;51.456;7.622;2024-02-15T14:45:16;14.90;99.90
15115;DHT22;7658;51.456;7.622;2024-02-15T14:47:42;14.90;99.90
15115;DHT22;7658;51.456;7.622;2024-02-15T14:50:08;14.80;99.90
15115;DHT22;7658;51.456;7.622;2024-02-15T14:52:35;14.80;99.90
15115;DHT22;7658;51.456;7.622;2024-02-15T14:55:03;14.70;99.90
15115;DHT22;7658;51.456;7.622;2024-02-15T14:57:31;14.70;99.90
15115;DHT22;7658;51.456;7.622;2024-02-15T14:59:59;14.60;99.90
15115;DHT22;7658;51.456;7.622;2024-02-15T15:02:24;14.60;99.90
15115;DHT22;7658;51.456;7.622;2024-02-15T15:04:50;14.50;99.90
15115;DHT22;7658;51.456;7.622;2024-02-15T15:07:34;14.40;99.90
15115;DHT22;7658;51.456;7.622;2024-02-15T15:10:19;14.40;99.90
15115;DHT22;7658;51.456;7.622;2024-02-15T15:13:03;14.40;99.90
15115;DHT22;7658;51.456;7.622;2024-02-15T15:15:29;14.30;99.90
15115;DHT22;7658;51.456;7.622;2024-02-15T15:17:54;14.30;99.90
15115;DHT22;7658;51.456;7.622;2024-02-15T15:20:21;14.30;99.90
15115;DHT22;7658;51.456;7.622;2024-02-15T15:22:47;14.30;99.90
15115;DHT22;7658;51.456;7.622;2024-02-15T15:25:12;14.30;99.90
15115;DHT22;7658;51.456;7.622;2024-02-15T15:27:38;14.30;99.90
15115;DHT22;7658;51.456;7.622;2024-02-15T15:30:06;14.30;99.90
15115;DHT22;7658;51.456;7.622;2024-02-15T15:32:32;14.30;99.90
15115;DHT22;7658;51.456;7.622;2024-02-15T15:34:59;14.30;99.90
15115;DHT22;7658;51.456;7.622;2024-02-15T15:37:25;14.30;99.90
15115;DHT22;7658;51.456;7.622;2024-02-15T15:39:50;14.20;99.90
15115;DHT22;7658;51.456;7.622;2024-02-15T15:42:20;14.20;99.90
15115;DHT22;7658;51.456;7.622;2024-02-15T15:44:45;14.20;99.90
15115;DHT22;7658;51.456;7.622;2024-02-15T15:47:12;14.20;99.90
15115;DHT22;7658;51.456;7.622;2024-02-15T15:49:38;14.30;99.90
15115;DHT22;7658;51.456;7.622;2024-02-15T15:52:05;14.20;99.90
15115;DHT22;7658;51.456;7.622;2024-02-15T15:54:32;14.20;99.90
15115;DHT22;7658;51.456;7.622;2024-02-15T15:56:58;14.20;99.90
15115;DHT22;7658;51.456;7.622;2024-02-15T15:59:25;14.10;99.90
15115;DHT22;7658;51.456;7.622;2024-02-15T16:01:51;14.10;99.90
15115;DHT22;7658;51.456;7.622;2024-02-15T16:04:17;14.10;99.90
15115;DHT22;7658;51.456;7.622;2024-02-15T16:06:42;14.10;99.90
15115;DHT22;7658;51.456;7.622;2024-02-15T16:09:09;14.10;99.90